Time;durP1;ratioP1;P1;durP2;ratioP2;P2;SDS_P1;SDS_P2;PMS_P1;PMS_P2;Temp;Humidity;BMP_temperature;BMP_pressure;BME280_temperature;BME280_humidity;BME280_pressure;Samples;Min_cycle;Max_cycle;Signal;HPM_P1;HPM_P2
2021/10/30 00:00:16;;;;;;;52.88;22.45;;;;;;;4.82;53.41;98669.19;5085087;28;20031;-73
2021/10/30 00:02:42;;;;;;;54.78;22.60;;;;;;;4.77;52.77;98664.53;5093503;28;20023;-73
2021/10/30 00:05:12;;;;;;;51.13;22.13;;;;;;;4.76;53.00;98663.69;5094944;28;20507;-74
2021/10/30 00:07:38;;;;;;;51.92;21.27;;;;;;;4.79;53.77;98664.28;5088345;28;20480;-71
2021/10/30 00:10:05;;;;;;;41.83;18.80;;;;;;;4.81;54.01;98667.56;5090897;28;20024;-74
2021/10/30 00:12:31;;;;;;;37.80;17.80;;;;;;;4.85;53.13;98671.41;5087911;28;20031;-73
2021/10/30 00:14:57;;;;;;;39.70;16.58;;;;;;;4.89;53.39;98670.66;5101428;28;20592;-74
2021/10/30 00:17:22;;;;;;;37.22;15.23;;;;;;;5.00;53.53;98665.34;5085389;28;20473;-75
2021/10/30 00:19:47;;;;;;;34.85;13.65;;;;;;;5.09;53.64;98654.84;5086965;28;20457;-74
2021/10/30 00:22:13;;;;;;;29.25;11.98;;;;;;;5.20;53.21;98665.56;5087129;28;20104;-74
2021/10/30 00:24:38;;;;;;;24.38;11.15;;;;;;;5.30;53.24;98653.97;5083986;28;20400;-74
2021/10/30 00:27:04;;;;;;;23.60;11.00;;;;;;;5.45;53.18;98657.94;5084586;28;20047;-74
2021/10/30 00:29:30;;;;;;;28.85;11.40;;;;;;;5.59;53.18;98645.53;5086330;28;20048;-75
2021/10/30 00:31:56;;;;;;;26.08;11.70;;;;;;;5.70;53.29;98651.91;5082985;28;20028;-75
2021/10/30 00:34:22;;;;;;;23.50;10.95;;;;;;;5.82;52.98;98649.78;5060338;28;20036;-74
2021/10/30 00:36:49;;;;;;;24.17;10.02;;;;;;;5.99;52.64;98645.28;5083953;28;20047;-75
2021/10/30 00:39:14;;;;;;;22.85;10.93;;;;;;;6.16;52.85;98647.88;5086478;28;20244;-75
2021/10/30 00:41:39;;;;;;;23.52;9.85;;;;;;;6.32;52.27;98651.50;5068800;28;20516;-76
2021/10/30 00:44:10;;;;;;;27.73;10.40;;;;;;;6.48;52.26;98649.72;5082447;28;20542;-73
2021/10/30 00:46:39;;;;;;;22.63;9.57;;;;;;;6.62;52.20;98652.78;5085832;28;20031;-74
2021/10/30 00:49:04;;;;;;;22.48;10.10;;;;;;;6.73;51.90;98649.00;5092502;28;20028;-73
2021/10/30 00:51:32;;;;;;;21.10;9.73;;;;;;;6.83;51.73;98646.31;5089761;28;20537;-75
2021/10/30 00:54:00;;;;;;;18.27;8.68;;;;;;;6.93;51.58;98645.53;5090220;28;20028;-73
2021/10/30 00:56:27;;;;;;;16.05;7.82;;;;;;;7.02;51.41;98648.56;5084471;28;20024;-75
2021/10/30 00:58:54;;;;;;;13.05;7.90;;;;;;;7.14;51.44;98645.59;5080508;28;20020;-74
2021/10/30 01:01:20;;;;;;;17.88;7.60;;;;;;;7.24;51.11;98639.34;5090573;28;20047;-75
2021/10/30 01:03:45;;;;;;;15.98;7.80;;;;;;;7.35;50.90;98638.28;5091298;28;20024;-75
2021/10/30 01:06:10;;;;;;;13.98;7.82;;;;;;;7.44;51.06;98641.28;5092424;28;20089;-74
2021/10/30 01:08:36;;;;;;;15.98;8.55;;;;;;;7.53;50.88;98626.00;5095165;28;20110;-74
2021/10/30 01:11:02;;;;;;;15.23;8.32;;;;;;;7.62;50.78;98622.75;5072085;28;20384;-74
2021/10/30 01:13:28;;;;;;;13.15;8.07;;;;;;;7.69;50.61;98617.84;5091741;28;20016;-75
2021/10/30 01:15:53;;;;;;;15.27;7.05;;;;;;;7.75;50.42;98614.81;5090472;28;20522;-75
2021/10/30 01:18:19;;;;;;;15.85;8.50;;;;;;;7.80;50.21;98611.25;5089236;28;20024;-75
2021/10/30 01:20:44;;;;;;;15.25;8.30;;;;;;;7.83;49.95;98609.91;5073798;28;20027;-75
2021/10/30 01:23:10;;;;;;;17.10;8.70;;;;;;;7.82;50.00;98613.72;5089126;28;20032;-75
2021/10/30 01:25:36;;;;;;;16.85;8.63;;;;;;;7.80;49.87;98611.25;5090967;28;20069;-75
2021/10/30 01:28:02;;;;;;;16.25;8.30;;;;;;;7.81;49.96;98607.44;5081002;28;20657;-75
2021/10/30 01:30:27;;;;;;;15.90;8.70;;;;;;;7.78;49.86;98607.97;5086285;28;20028;-75
2021/10/30 01:32:53;;;;;;;13.85;8.63;;;;;;;7.79;49.99;98608.81;5090657;28;20019;-72
2021/10/30 01:35:34;;;;;;;17.65;9.30;;;;;;;7.76;50.05;98610.16;5087079;28;20024;-76
2021/10/30 01:38:01;;;;;;;18.35;9.32;;;;;;;7.75;49.86;98606.63;5089288;28;20116;-77
2021/10/30 01:40:27;;;;;;;20.55;10.98;;;;;;;7.75;50.32;98609.38;5091848;28;20023;-76
2021/10/30 01:43:02;;;;;;;16.52;9.73;;;;;;;7.68;49.83;98611.56;5071547;28;20023;-77
2021/10/30 01:45:29;;;;;;;18.30;9.65;;;;;;;7.62;49.77;98612.63;5074038;28;20115;-76
2021/10/30 01:47:55;;;;;;;18.92;10.40;;;;;;;7.50;49.90;98606.66;5090159;28;20056;-76
2021/10/30 01:50:20;;;;;;;18.20;10.05;;;;;;;7.43;49.62;98606.91;5091909;28;20078;-76
2021/10/30 01:52:47;;;;;;;20.55;10.50;;;;;;;7.35;49.90;98605.53;5089428;28;20024;-76
2021/10/30 01:55:14;;;;;;;20.52;10.38;;;;;;;7.27;49.88;98609.63;5086452;28;20029;-76
2021/10/30 01:57:41;;;;;;;20.13;10.68;;;;;;;7.18;50.12;98613.13;5085180;28;20073;-76
2021/10/30 02:00:09;;;;;;;19.33;9.60;;;;;;;7.04;50.13;98610.13;5086740;28;20020;-75
2021/10/30 02:02:35;;;;;;;18.55;9.93;;;;;;;6.93;50.45;98609.28;5089548;28;20503;-76
2021/10/30 02:05:01;;;;;;;16.98;8.95;;;;;;;6.79;50.64;98615.22;5085282;28;20021;-76
2021/10/30 02:07:27;;;;;;;16.67;8.52;;;;;;;6.67;50.49;98606.47;5083648;28;20037;-76
2021/10/30 02:09:53;;;;;;;15.15;8.32;;;;;;;6.52;50.79;98608.03;5069913;28;20063;-76
2021/10/30 02:12:19;;;;;;;18.23;10.05;;;;;;;6.42;51.01;98602.53;5082705;28;20039;-75
2021/10/30 02:14:45;;;;;;;19.08;10.32;;;;;;;6.33;51.57;98604.97;5079293;28;20103;-76
2021/10/30 02:17:10;;;;;;;16.00;10.07;;;;;;;6.28;51.77;98606.84;5083779;28;20028;-76
2021/10/30 02:19:35;;;;;;;18.00;9.68;;;;;;;6.22;51.69;98603.25;5083829;28;20117;-76
2021/10/30 02:22:01;;;;;;;16.38;10.20;;;;;;;6.18;52.09;98605.69;5079198;28;20082;-76
2021/10/30 02:24:26;;;;;;;20.55;11.02;;;;;;;6.09;52.42;98605.38;5082628;28;20492;-76
2021/10/30 02:26:52;;;;;;;22.20;12.50;;;;;;;5.95;52.44;98610.41;5062525;28;20118;-76
2021/10/30 02:29:18;;;;;;;27.40;13.35;;;;;;;5.81;52.07;98601.88;5081299;28;20072;-76
2021/10/30 02:31:43;;;;;;;24.23;13.82;;;;;;;5.69;52.21;98608.59;5079984;28;20030;-76
2021/10/30 02:34:09;;;;;;;24.33;11.90;;;;;;;5.55;52.97;98603.59;5082478;28;20541;-76
2021/10/30 02:36:34;;;;;;;45.13;17.73;;;;;;;5.40;52.73;98598.84;5080036;28;20063;-76
2021/10/30 02:38:59;;;;;;;52.58;18.23;;;;;;;5.33;53.65;98599.06;5082980;28;20434;-76
2021/10/30 02:41:26;;;;;;;52.50;19.05;;;;;;;5.29;53.40;98600.66;5083126;28;20042;-76
2021/10/30 02:43:51;;;;;;;32.97;14.02;;;;;;;5.28;53.19;98595.50;5088417;28;20035;-77
2021/10/30 02:46:16;;;;;;;28.05;13.75;;;;;;;5.31;53.92;98600.38;5085516;28;20040;-76
2021/10/30 02:48:42;;;;;;;29.83;14.27;;;;;;;5.36;54.31;98598.56;5082704;28;20343;-76
2021/10/30 02:51:07;;;;;;;29.45;14.27;;;;;;;5.46;54.42;98586.94;5081785;28;20029;-75
2021/10/30 02:53:33;;;;;;;32.65;13.73;;;;;;;5.60;53.96;98591.94;5083782;28;20024;-76
2021/10/30 02:55:58;;;;;;;25.10;11.65;;;;;;;5.74;54.01;98581.44;5075504;28;20021;-77
2021/10/30 02:58:24;;;;;;;19.05;11.05;;;;;;;5.88;54.62;98579.91;5076929;28;20027;-77
2021/10/30 03:00:49;;;;;;;19.80;9.88;;;;;;;6.05;54.02;98582.47;5079966;28;20030;-76
2021/10/30 03:03:15;;;;;;;13.50;8.75;;;;;;;6.24;54.39;98580.13;5064879;28;20032;-77
2021/10/30 03:05:40;;;;;;;12.48;7.93;;;;;;;6.40;54.25;98574.75;5085434;28;20840;-76
2021/10/30 03:08:06;;;;;;;15.10;10.43;;;;;;;6.55;53.90;98577.53;5069495;28;20020;-77
2021/10/30 03:10:31;;;;;;;16.55;10.18;;;;;;;6.68;53.88;98569.97;5085001;28;20067;-76
2021/10/30 03:12:56;;;;;;;15.35;9.88;;;;;;;6.78;53.43;98558.25;5076547;28;20012;-77
2021/10/30 03:15:22;;;;;;;14.13;8.85;;;;;;;6.88;53.20;98555.56;5077516;28;20031;-75
2021/10/30 03:17:48;;;;;;;11.05;7.93;;;;;;;6.98;53.17;98552.03;5081700;28;20032;-76
2021/10/30 03:20:14;;;;;;;16.73;10.55;;;;;;;7.06;52.98;98558.84;5072812;28;20036;-75
2021/10/30 03:22:40;;;;;;;15.73;11.30;;;;;;;7.11;52.77;98558.84;5096401;28;20027;-75
2021/10/30 03:25:06;;;;;;;20.08;14.23;;;;;;;7.14;52.89;98567.31;5092225;28;20103;-75
2021/10/30 03:27:31;;;;;;;28.13;18.20;;;;;;;7.15;52.68;98563.50;5091977;28;20023;-75
2021/10/30 03:29:57;;;;;;;20.35;14.00;;;;;;;7.17;52.73;98563.22;5080456;28;20048;-75
2021/10/30 03:32:22;;;;;;;15.32;9.88;;;;;;;7.19;52.87;98568.41;5062580;28;20050;-75
2021/10/30 03:34:47;;;;;;;15.43;9.90;;;;;;;7.21;52.81;98567.06;5084266;28;20114;-75
2021/10/30 03:37:13;;;;;;;18.15;9.90;;;;;;;7.24;52.24;98568.41;5086476;28;20025;-75
2021/10/30 03:39:39;;;;;;;14.98;9.18;;;;;;;7.28;52.80;98577.69;5075561;28;20106;-75
2021/10/30 03:42:05;;;;;;;17.27;9.27;;;;;;;7.26;52.40;98575.25;5070742;28;20052;-75
2021/10/30 03:44:31;;;;;;;19.83;11.18;;;;;;;7.23;52.58;98564.03;5090812;28;20020;-75
2021/10/30 03:46:56;;;;;;;24.90;13.35;;;;;;;7.15;52.29;98574.41;5083879;28;20030;-75
2021/10/30 03:49:21;;;;;;;26.30;15.35;;;;;;;7.05;52.28;98566.22;5084099;28;20033;-76
2021/10/30 03:51:47;;;;;;;27.48;15.75;;;;;;;6.93;52.61;98580.09;5085174;28;20103;-75
2021/10/30 03:54:12;;;;;;;22.83;12.35;;;;;;;6.78;52.16;98583.59;5088123;28;20085;-75
2021/10/30 03:56:38;;;;;;;24.30;14.02;;;;;;;6.62;52.87;98577.28;5088764;28;20049;-76
2021/10/30 03:59:03;;;;;;;30.20;18.60;;;;;;;6.48;52.63;98579.69;5087387;28;20047;-76
2021/10/30 04:01:29;;;;;;;26.58;16.20;;;;;;;6.31;53.00;98584.53;5088755;28;20567;-75
2021/10/30 04:03:55;;;;;;;29.02;17.10;;;;;;;6.12;52.77;98584.97;5085808;28;20337;-75
2021/10/30 04:06:21;;;;;;;25.75;15.30;;;;;;;5.96;53.15;98579.38;5087094;28;20028;-75
2021/10/30 04:08:46;;;;;;;22.90;14.10;;;;;;;5.81;53.34;98563.78;5088599;28;20024;-76
2021/10/30 04:11:12;;;;;;;23.27;12.77;;;;;;;5.72;53.79;98561.81;5088563;28;20046;-77
2021/10/30 04:13:37;;;;;;;13.65;8.52;;;;;;;5.75;53.93;98561.28;5090336;28;20468;-76
2021/10/30 04:16:03;;;;;;;11.55;7.30;;;;;;;5.93;54.57;98566.28;5085707;28;20024;-75
2021/10/30 04:18:28;;;;;;;11.63;6.72;;;;;;;6.16;54.20;98558.84;5087811;28;20034;-75
2021/10/30 04:20:53;;;;;;;10.27;6.45;;;;;;;6.44;54.28;98561.44;5087389;28;20055;-75
2021/10/30 04:23:19;;;;;;;11.73;6.53;;;;;;;6.62;54.14;98560.13;5082957;28;20130;-75
2021/10/30 04:25:44;;;;;;;14.50;6.97;;;;;;;6.77;53.82;98567.53;5085262;28;20464;-75
2021/10/30 04:28:10;;;;;;;11.85;7.22;;;;;;;6.91;53.79;98551.47;5075647;28;20062;-75
2021/10/30 04:30:35;;;;;;;11.57;6.63;;;;;;;7.01;53.11;98554.22;5088333;28;20028;-76
2021/10/30 04:33:01;;;;;;;13.50;6.47;;;;;;;7.08;53.50;98568.41;5085782;28;20045;-76
2021/10/30 04:35:26;;;;;;;11.10;6.93;;;;;;;7.15;52.87;98560.75;5086783;28;20035;-75
2021/10/30 04:37:52;;;;;;;14.02;6.90;;;;;;;7.18;53.06;98553.97;5073403;28;20380;-75
2021/10/30 04:40:17;;;;;;;13.05;7.47;;;;;;;7.20;52.61;98551.78;5066784;28;20024;-75
2021/10/30 04:42:43;;;;;;;12.52;7.60;;;;;;;7.20;52.74;98549.06;5083998;28;20483;-75
2021/10/30 04:45:08;;;;;;;13.48;7.57;;;;;;;7.19;52.82;98552.03;5087120;28;20028;-75
2021/10/30 04:47:34;;;;;;;14.25;8.02;;;;;;;7.19;52.72;98546.59;5086340;28;20107;-75
2021/10/30 04:49:59;;;;;;;15.27;8.60;;;;;;;7.18;52.43;98547.66;5084185;28;20548;-74
2021/10/30 04:52:25;;;;;;;18.67;9.75;;;;;;;7.14;52.50;98540.03;5085564;28;20555;-75
2021/10/30 04:54:51;;;;;;;22.40;10.10;;;;;;;7.09;52.73;98539.22;5091206;28;20030;-75
2021/10/30 04:57:16;;;;;;;29.55;11.82;;;;;;;7.06;52.77;98537.88;5084393;28;20485;-75
2021/10/30 04:59:41;;;;;;;29.27;12.80;;;;;;;7.00;52.88;98541.66;5085412;28;20051;-75
2021/10/30 05:02:08;;;;;;;24.17;12.07;;;;;;;6.96;52.96;98533.19;5088088;28;20515;-75
2021/10/30 05:04:33;;;;;;;18.75;10.05;;;;;;;6.95;52.70;98537.00;5089582;28;20031;-75
2021/10/30 05:06:59;;;;;;;18.92;9.05;;;;;;;6.96;52.57;98537.84;5081756;28;20024;-76
2021/10/30 05:09:24;;;;;;;14.82;8.48;;;;;;;6.95;52.85;98534.28;5085205;28;20043;-76
2021/10/30 05:11:53;;;;;;;16.98;9.00;;;;;;;6.96;52.83;98527.75;5087631;28;20024;-75
2021/10/30 05:14:18;;;;;;;14.77;8.38;;;;;;;6.96;52.50;98533.19;5086790;28;20028;-75
2021/10/30 05:16:44;;;;;;;15.40;9.18;;;;;;;6.96;52.68;98529.66;5084851;28;20027;-75
2021/10/30 05:19:09;;;;;;;19.10;9.57;;;;;;;6.98;53.00;98536.47;5088672;28;20039;-75
2021/10/30 05:21:34;;;;;;;15.95;10.30;;;;;;;7.00;52.87;98533.50;5082592;28;20056;-75
2021/10/30 05:24:00;;;;;;;20.05;11.50;;;;;;;7.02;52.68;98536.75;5081048;28;20020;-76
2021/10/30 05:26:25;;;;;;;33.17;17.70;;;;;;;7.05;52.90;98535.38;5084571;28;20059;-75
2021/10/30 05:28:51;;;;;;;36.95;20.63;;;;;;;7.08;52.91;98540.31;5086383;28;20484;-75
2021/10/30 05:31:17;;;;;;;32.28;19.20;;;;;;;7.09;52.85;98533.75;5087546;28;20028;-75
2021/10/30 05:33:42;;;;;;;31.38;17.63;;;;;;;7.10;52.67;98538.97;5086695;28;20016;-75
2021/10/30 05:36:10;;;;;;;30.98;16.20;;;;;;;7.11;52.77;98537.88;5087570;28;20032;-75
2021/10/30 05:38:38;;;;;;;31.88;16.92;;;;;;;7.11;52.94;98535.16;5076787;28;20024;-75
2021/10/30 05:41:04;;;;;;;32.00;16.73;;;;;;;7.14;52.84;98539.22;5080413;28;20032;-76
2021/10/30 05:43:29;;;;;;;36.00;18.25;;;;;;;7.14;52.96;98533.78;5083644;28;20065;-75
2021/10/30 05:45:55;;;;;;;35.03;18.10;;;;;;;7.13;52.92;98521.22;5086097;28;20020;-75
2021/10/30 05:48:21;;;;;;;37.40;16.98;;;;;;;7.18;52.94;98528.56;5093437;28;20032;-75
2021/10/30 05:50:46;;;;;;;33.45;16.92;;;;;;;7.17;52.78;98537.84;5086779;28;20465;-75
2021/10/30 05:53:11;;;;;;;30.65;13.95;;;;;;;7.21;52.80;98530.75;5083382;28;20101;-75
2021/10/30 05:55:37;;;;;;;38.17;17.85;;;;;;;7.26;53.00;98528.03;5076110;28;20020;-75
2021/10/30 05:58:03;;;;;;;30.13;14.90;;;;;;;7.30;53.06;98516.34;5079520;28;20020;-77
2021/10/30 06:00:29;;;;;;;24.73;12.95;;;;;;;7.39;52.87;98521.22;5063860;28;20389;-77
2021/10/30 06:02:54;;;;;;;25.20;13.18;;;;;;;7.46;52.89;98532.69;5084026;28;20417;-77
2021/10/30 06:05:20;;;;;;;29.23;14.75;;;;;;;7.54;53.01;98525.88;5087019;28;20025;-76
2021/10/30 06:07:45;;;;;;;23.73;13.30;;;;;;;7.59;52.70;98523.94;5089271;28;20027;-76
2021/10/30 06:10:11;;;;;;;26.98;13.80;;;;;;;7.67;52.87;98525.28;5072376;28;20028;-76
2021/10/30 06:12:40;;;;;;;28.38;13.85;;;;;;;7.77;52.59;98540.00;5057220;28;20034;-74
2021/10/30 06:15:07;;;;;;;34.15;14.88;;;;;;;7.82;52.92;98537.28;5078764;28;20028;-74
2021/10/30 06:17:32;;;;;;;27.10;14.48;;;;;;;7.87;52.42;98540.00;5081952;28;20484;-74
2021/10/30 06:19:58;;;;;;;27.17;16.35;;;;;;;7.93;52.84;98533.44;5083785;28;20024;-74
2021/10/30 06:22:24;;;;;;;21.67;14.30;;;;;;;8.00;52.89;98527.69;5087114;28;20040;-74
2021/10/30 06:24:49;;;;;;;24.33;15.35;;;;;;;8.04;52.53;98539.69;5085413;28;20021;-74
2021/10/30 06:27:15;;;;;;;24.13;13.65;;;;;;;8.11;52.38;98526.56;5073579;28;20025;-75
2021/10/30 06:29:40;;;;;;;25.20;14.65;;;;;;;8.16;52.58;98534.72;5058352;28;20071;-75
2021/10/30 06:32:06;;;;;;;27.15;15.00;;;;;;;8.26;52.14;98539.34;5079913;28;20449;-74
2021/10/30 06:34:32;;;;;;;32.40;13.90;;;;;;;8.34;52.29;98544.25;5065099;28;20021;-74
2021/10/30 06:36:57;;;;;;;30.88;14.88;;;;;;;8.44;51.90;98543.38;5084923;28;20024;-74
2021/10/30 06:39:23;;;;;;;30.70;14.65;;;;;;;8.56;51.64;98545.81;5087200;28;20020;-75
2021/10/30 06:41:49;;;;;;;23.98;13.02;;;;;;;8.68;52.09;98552.84;5088874;28;20043;-74
2021/10/30 06:44:14;;;;;;;18.98;11.13;;;;;;;8.81;51.85;98543.22;5074896;28;20020;-75
2021/10/30 06:46:40;;;;;;;19.00;10.80;;;;;;;8.93;51.89;98544.50;5060737;28;20456;-75
2021/10/30 06:49:10;;;;;;;23.08;12.27;;;;;;;9.05;51.36;98560.56;5082824;28;20095;-75
2021/10/30 06:51:35;;;;;;;;;;;;;;;9.16;51.90;98553.13;5085502;28;20044;-75
2021/10/30 06:54:01;;;;;;;16.40;10.90;;;;;;;9.25;51.69;98556.06;5071250;28;19966;-75
2021/10/30 06:56:27;;;;;;;19.55;11.15;;;;;;;9.33;51.00;98552.72;5070405;28;20056;-75
2021/10/30 06:58:52;;;;;;;22.02;12.73;;;;;;;9.43;51.18;98550.97;5091812;28;20099;-74
2021/10/30 07:01:17;;;;;;;23.17;15.05;;;;;;;9.50;51.25;98537.78;5082453;28;20040;-74
2021/10/30 07:03:43;;;;;;;25.30;16.00;;;;;;;9.56;51.12;98533.91;5083914;28;20025;-75
2021/10/30 07:06:12;;;;;;;27.80;15.27;;;;;;;9.61;50.80;98533.03;5086440;28;20480;-74
2021/10/30 07:08:38;;;;;;;32.75;18.58;;;;;;;9.64;50.78;98536.03;5072651;28;20041;-74
2021/10/30 07:11:03;;;;;;;30.52;15.95;;;;;;;9.68;50.72;98536.25;5087802;28;20450;-74
2021/10/30 07:13:29;;;;;;;28.58;14.18;;;;;;;9.70;50.26;98534.03;5087510;28;20030;-74
2021/10/30 07:15:54;;;;;;;25.15;13.43;;;;;;;9.72;50.83;98529.09;5090944;28;20103;-75
2021/10/30 07:18:20;;;;;;;28.58;15.07;;;;;;;9.77;50.80;98523.56;5068493;28;20475;-74
2021/10/30 07:20:45;;;;;;;32.92;16.08;;;;;;;9.83;50.71;98521.59;5085204;28;20020;-75
2021/10/30 07:23:10;;;;;;;27.90;14.00;;;;;;;9.89;50.73;98530.59;5089239;28;20020;-76
2021/10/30 07:25:36;;;;;;;26.63;14.15;;;;;;;9.96;50.91;98528.31;5089850;28;20021;-75
2021/10/30 07:28:01;;;;;;;24.50;14.00;;;;;;;10.02;50.41;98527.13;5085648;28;20706;-75
2021/10/30 07:30:27;;;;;;;25.23;13.50;;;;;;;10.10;50.71;98534.72;5087670;28;20016;-75
2021/10/30 07:32:53;;;;;;;22.52;11.00;;;;;;;10.20;50.17;98531.03;5089161;28;20020;-76
2021/10/30 07:35:20;;;;;;;17.73;9.35;;;;;;;10.33;49.96;98526.81;5086633;28;20198;-76
2021/10/30 07:37:46;;;;;;;18.58;9.48;;;;;;;10.49;49.89;98532.09;5088326;28;20023;-76
2021/10/30 07:40:11;;;;;;;17.70;8.57;;;;;;;10.65;49.46;98533.56;5088157;28;20016;-76
2021/10/30 07:42:37;;;;;;;16.30;8.55;;;;;;;10.83;48.96;98531.94;5088507;28;20036;-76
2021/10/30 07:45:04;;;;;;;15.98;9.07;;;;;;;11.01;49.37;98533.03;5084419;28;20103;-75
2021/10/30 07:47:29;;;;;;;15.48;9.40;;;;;;;11.13;49.33;98535.31;5086183;28;20089;-77
2021/10/30 07:49:57;;;;;;;14.25;8.52;;;;;;;11.26;49.36;98544.72;5068646;28;20016;-76
2021/10/30 07:52:23;;;;;;;20.73;9.80;;;;;;;11.38;48.71;98535.22;5088222;28;20035;-74
2021/10/30 07:54:48;;;;;;;16.83;8.90;;;;;;;11.50;48.70;98532.84;5085592;28;20024;-74
2021/10/30 07:57:14;;;;;;;20.08;9.73;;;;;;;11.59;48.22;98536.53;5091502;28;20480;-74
2021/10/30 07:59:40;;;;;;;16.83;9.00;;;;;;;11.69;47.80;98535.53;5077715;28;20028;-74
2021/10/30 08:02:07;;;;;;;22.90;10.90;;;;;;;11.78;48.36;98538.38;5081616;28;20058;-74
2021/10/30 08:04:36;;;;;;;22.48;11.63;;;;;;;11.86;48.49;98534.94;5084467;28;20123;-74
2021/10/30 08:07:04;;;;;;;19.73;10.10;;;;;;;11.97;47.79;98540.25;5087061;28;20430;-73
2021/10/30 08:09:30;;;;;;;17.27;8.98;;;;;;;12.04;48.00;98525.03;5089565;28;20032;-73
2021/10/30 08:11:57;;;;;;;16.73;9.40;;;;;;;12.13;47.93;98525.13;5090041;28;20090;-74
2021/10/30 08:14:23;;;;;;;14.75;8.40;;;;;;;12.23;46.96;98532.34;5081114;28;20028;-70
2021/10/30 08:16:48;;;;;;;18.67;11.45;;;;;;;12.31;47.64;98522.59;5077656;28;20039;-74
2021/10/30 08:19:14;;;;;;;12.60;8.18;;;;;;;12.39;48.00;98523.78;5083580;28;20027;-73
2021/10/30 08:21:39;;;;;;;13.18;7.35;;;;;;;12.49;47.83;98527.13;5083931;28;20020;-76
2021/10/30 08:24:05;;;;;;;14.65;7.80;;;;;;;12.56;47.57;98524.00;5067489;28;20027;-77
2021/10/30 08:26:31;;;;;;;14.48;7.60;;;;;;;12.66;47.28;98520.19;5087335;28;20035;-78
2021/10/30 08:28:58;;;;;;;15.77;8.23;;;;;;;12.75;47.08;98525.78;5078169;28;20540;-78
2021/10/30 08:31:24;;;;;;;15.50;7.53;;;;;;;12.86;46.53;98527.19;5074916;28;20024;-76
2021/10/30 08:33:49;;;;;;;13.65;7.72;;;;;;;12.95;46.65;98527.25;5082023;28;20032;-77
2021/10/30 08:36:15;;;;;;;12.93;7.47;;;;;;;13.03;46.20;98526.53;5083495;28;20069;-76
2021/10/30 08:38:40;;;;;;;13.90;7.63;;;;;;;13.14;46.37;98523.53;5081758;28;20297;-77
2021/10/30 08:41:06;;;;;;;12.63;6.57;;;;;;;13.20;46.21;98514.84;5064505;28;20070;-78
2021/10/30 08:43:32;;;;;;;12.55;6.72;;;;;;;13.30;45.49;98523.97;5068097;28;20035;-77
2021/10/30 08:45:59;;;;;;;10.57;6.35;;;;;;;13.35;45.50;98519.16;5092457;28;20526;-78
2021/10/30 08:48:29;;;;;;;12.18;6.55;;;;;;;13.45;44.75;98518.09;5075620;28;20047;-77
2021/10/30 08:50:55;;;;;;;10.52;6.30;;;;;;;13.51;44.84;98519.63;5090119;28;20020;-76
2021/10/30 08:53:22;;;;;;;12.82;6.20;;;;;;;13.57;45.27;98514.81;5070809;28;20034;-77
2021/10/30 08:55:47;;;;;;;13.10;6.85;;;;;;;13.64;44.56;98515.19;5072435;28;20028;-77
2021/10/30 08:58:15;;;;;;;9.63;5.85;;;;;;;13.73;44.38;98511.63;5090895;28;20537;-78
2021/10/30 09:00:53;;;;;;;13.05;6.70;;;;;;;13.81;44.62;98513.63;5090157;28;20070;-77
2021/10/30 09:03:22;;;;;;;9.82;6.13;;;;;;;13.87;44.12;98517.88;5088910;28;20034;-77
2021/10/30 09:05:51;;;;;;;11.20;6.63;;;;;;;13.94;44.23;98525.69;5072055;28;20032;-78
2021/10/30 09:08:18;;;;;;;12.52;7.05;;;;;;;14.02;44.49;98515.84;5069404;28;20024;-74
2021/10/30 09:10:48;;;;;;;13.60;7.60;;;;;;;14.08;44.01;98506.28;5084866;28;20020;-74
2021/10/30 09:13:15;;;;;;;12.15;7.00;;;;;;;14.17;43.91;98504.38;5086569;28;20499;-76
2021/10/30 09:15:46;;;;;;;11.68;7.40;;;;;;;14.27;44.27;98503.25;5070751;28;20057;-73
2021/10/30 09:18:32;;;;;;;9.23;6.13;;;;;;;14.35;43.87;98498.91;5089402;28;20047;-74
2021/10/30 09:21:03;;;;;;;11.30;6.07;;;;;;;14.42;43.23;98499.28;5097615;28;20040;-73
2021/10/30 09:23:34;;;;;;;8.88;5.70;;;;;;;14.51;42.53;98496.53;5085951;28;20035;-73
2021/10/30 09:26:06;;;;;;;11.05;6.35;;;;;;;14.60;42.79;98500.13;5087128;28;20106;-74
2021/10/30 09:28:36;;;;;;;9.75;6.30;;;;;;;14.68;42.37;98498.50;5062904;28;20064;-75
2021/10/30 09:31:04;;;;;;;;;;;;;;;14.73;41.91;98492.84;5070028;28;20079;-74
2021/10/30 09:33:32;;;;;;;10.70;6.20;;;;;;;14.79;41.23;98493.50;5085911;28;19972;-75
2021/10/30 09:36:07;;;;;;;10.65;6.25;;;;;;;14.85;40.84;98500.50;5086164;28;20055;-75
2021/10/30 09:38:38;;;;;;;12.52;6.60;;;;;;;14.92;42.11;98500.00;5085416;28;20020;-75
2021/10/30 09:41:20;;;;;;;13.73;6.90;;;;;;;14.99;42.32;98498.41;5069298;28;20039;-74
2021/10/30 09:43:56;;;;;;;7.70;5.82;;;;;;;15.08;42.15;98492.88;5068297;28;20024;-76
2021/10/30 09:46:23;;;;;;;11.32;6.72;;;;;;;15.16;42.42;98505.88;5060232;28;20118;-75
2021/10/30 09:48:48;;;;;;;10.55;6.25;;;;;;;15.24;42.20;98506.19;5059992;28;20058;-75
2021/10/30 09:51:34;;;;;;;13.20;6.18;;;;;;;15.30;42.30;98502.94;5067328;28;20377;-72
2021/10/30 09:54:01;;;;;;;9.13;6.03;;;;;;;15.36;42.15;98506.31;5065722;28;20036;-71
2021/10/30 09:56:45;;;;;;;10.18;6.32;;;;;;;15.44;41.57;98493.66;5064145;28;20063;-71
2021/10/30 09:59:17;;;;;;;9.80;7.15;;;;;;;15.51;40.98;98495.91;5057807;28;20381;-71
2021/10/30 10:01:47;;;;;;;10.05;6.50;;;;;;;15.54;42.07;98485.00;5063279;28;20091;-71
2021/10/30 10:04:15;;;;;;;10.90;6.78;;;;;;;15.64;41.48;98481.09;5058901;28;20013;-71
2021/10/30 10:06:45;;;;;;;11.57;6.30;;;;;;;15.71;41.61;98486.09;5049029;28;20016;-72
2021/10/30 10:09:16;;;;;;;8.60;5.80;;;;;;;15.77;41.11;98482.81;5053855;28;20059;-71
2021/10/30 10:11:43;;;;;;;9.80;6.10;;;;;;;15.85;40.81;98486.72;5062133;28;20042;-74
2021/10/30 10:14:12;;;;;;;10.73;6.50;;;;;;;15.89;41.65;98479.41;5058127;28;20105;-72
2021/10/30 10:16:38;;;;;;;12.43;6.55;;;;;;;15.97;40.97;98471.38;5061918;28;20082;-74
2021/10/30 10:19:03;;;;;;;11.73;7.55;;;;;;;16.02;40.85;98476.75;5062115;28;20271;-73
2021/10/30 10:21:34;;;;;;;9.73;6.15;;;;;;;16.06;40.36;98473.00;5061751;28;20462;-74
2021/10/30 10:24:09;;;;;;;8.90;5.95;;;;;;;16.11;39.94;98468.38;5064104;28;20036;-75
2021/10/30 10:26:50;;;;;;;10.93;7.20;;;;;;;16.19;41.02;98470.31;5053996;28;20033;-74
2021/10/30 10:29:35;;;;;;;12.13;7.35;;;;;;;16.26;40.49;98465.06;5054933;28;20563;-74
2021/10/30 10:32:02;;;;;;;12.82;6.93;;;;;;;16.34;39.95;98463.38;5065632;28;20032;-74
2021/10/30 10:34:37;;;;;;;12.13;7.35;;;;;;;16.41;40.31;98454.56;5066606;28;20031;-73
2021/10/30 10:37:11;;;;;;;11.82;6.80;;;;;;;16.47;39.92;98465.09;5071585;28;20115;-74
2021/10/30 10:39:45;;;;;;;9.57;6.57;;;;;;;16.54;40.12;98464.56;5066434;28;20070;-73
2021/10/30 10:42:13;;;;;;;10.50;6.80;;;;;;;16.61;39.37;98462.06;5066691;28;20137;-74
2021/10/30 10:44:41;;;;;;;9.35;6.07;;;;;;;16.71;38.72;98458.09;5067580;28;20036;-74
2021/10/30 10:47:30;;;;;;;12.48;6.90;;;;;;;16.76;38.99;98452.34;5061668;28;20845;-74
2021/10/30 10:50:21;;;;;;;8.60;6.32;;;;;;;16.86;38.89;98448.38;5059391;28;20044;-73
2021/10/30 10:55:46;;;;;;;8.32;6.07;;;;;;;17.01;38.08;98441.44;5066641;28;20032;-73
2021/10/30 10:58:14;;;;;;;11.45;5.13;;;;;;;17.08;37.90;98446.44;5064946;28;20036;-73
2021/10/30 11:01:03;;;;;;;7.28;4.82;;;;;;;17.13;36.79;98435.13;5067356;28;20782;-73
2021/10/30 11:03:29;;;;;;;;;;;;;;;17.21;36.34;98423.16;5066172;28;20108;-74
2021/10/30 11:06:03;;;;;;;7.85;5.35;;;;;;;17.25;37.38;98428.81;5066060;28;19999;-73
2021/10/30 11:08:31;;;;;;;8.65;5.38;;;;;;;17.33;36.79;98416.00;5057864;28;20100;-73
2021/10/30 11:11:24;;;;;;;6.40;4.65;;;;;;;17.41;36.21;98420.66;5058147;28;20303;-76
2021/10/30 11:14:00;;;;;;;7.93;6.10;;;;;;;17.47;35.92;98416.50;5067360;28;20033;-74
2021/10/30 11:16:42;;;;;;;11.10;5.75;;;;;;;17.53;35.47;98423.47;5066286;28;20036;-75
2021/10/30 11:19:16;;;;;;;8.50;5.32;;;;;;;17.56;36.19;98414.47;5069215;28;20434;-75
2021/10/30 11:21:51;;;;;;;10.15;5.85;;;;;;;17.62;35.95;98405.94;5065768;28;20036;-74
2021/10/30 11:24:22;;;;;;;9.50;5.80;;;;;;;17.69;35.34;98395.06;5066700;28;20028;-74
2021/10/30 11:27:01;;;;;;;10.07;6.40;;;;;;;17.73;36.32;98390.44;5066070;28;20029;-74
2021/10/30 11:29:27;;;;;;;12.00;6.88;;;;;;;17.82;34.86;98401.44;5058538;28;20048;-75
2021/10/30 11:32:01;;;;;;;10.05;6.05;;;;;;;17.84;35.24;98402.69;5056853;28;20086;-75